Seiyu Maru — JD3189 — position and weather

sailwx.info

Track history (hours):
 
Tides and Currents Weather Stations Pressure Air Temp Water Temp Dewpoint Dewpoint Depression Visibility Wind Speed Wind Dir Waves Ship Positions

Seiyu Maru

Last reported at 2014-Jul-30 16:33 UTC. Time now 2014-Jul-30 17:18 UTC.
Position N 34°36' E 135°03'.

Length 75 m; draft 4.5 m.

Type: Cargo ship. MMSI: 431002433.

Date/timePositionNaut miles runAvg speedWind from/ knotsBaromVisibWave heightAir tempDewpointWater temp
2014-Jul-30 16:33N 34°36' E 135°03'1010.1
2014-Jul-30 15:33N 34°26' E 135°03'1211.8
2014-Jul-30 14:33N 34°15' E 135°00'  
2014-Jul-24 13:17N 34°49' E 139°18'1910.0
2014-Jul-24 11:25N 34°50' E 139°41'2110.6
2014-Jul-24 09:29N 34°57' E 140°05'9 9.8
2014-Jul-24 08:32N 35°01' E 140°15'9 8.9
2014-Jul-24 07:32N 35°06' E 140°24'9 9.3
2014-Jul-24 06:33N 35°12' E 140°32'1111.0
2014-Jul-24 05:32N 35°21' E 140°40'1511.3
2014-Jul-24 04:14N 35°33' E 140°51'4511.2
2014-Jul-24 00:12N 36°17' E 141°05'  
Track history (hours):
 
Tides and Currents Weather Stations Pressure Air Temp Water Temp Dewpoint Dewpoint Depression Visibility Wind Speed Wind Dir Waves Ship Positions

Seiyu Maru

Last reported at 2014-Jul-30 16:33 UTC. Time now 2014-Jul-30 17:18 UTC.
Position N 34°36' E 135°03'.

Length 75 m; draft 4.5 m.

Type: Cargo ship. MMSI: 431002433.

Date/timePositionNaut miles runAvg speedWind from/ knotsBaromVisibWave heightAir tempDewpointWater temp
2014-Jul-30 16:33N 34°36' E 135°03'1010.1
2014-Jul-30 15:33N 34°26' E 135°03'1211.8
2014-Jul-30 14:33N 34°15' E 135°00'  
2014-Jul-24 13:17N 34°49' E 139°18'1910.0
2014-Jul-24 11:25N 34°50' E 139°41'2110.6
2014-Jul-24 09:29N 34°57' E 140°05'9 9.8
2014-Jul-24 08:32N 35°01' E 140°15'9 8.9
2014-Jul-24 07:32N 35°06' E 140°24'9 9.3
2014-Jul-24 06:33N 35°12' E 140°32'1111.0
2014-Jul-24 05:32N 35°21' E 140°40'1511.3
2014-Jul-24 04:14N 35°33' E 140°51'4511.2
2014-Jul-24 00:12N 36°17' E 141°05'  

Dump ship's entire track history